sensor_id;sensor_type;location;lat;lon;timestamp;temperature;humidity
59961;DHT22;55902;-37.980;-63.602;2022-12-15T00:03:21;25.80;46.10
59961;DHT22;55902;-37.980;-63.602;2022-12-15T00:06:06;25.60;46.50
59961;DHT22;55902;-37.980;-63.602;2022-12-15T00:08:51;25.40;46.70
59961;DHT22;55902;-37.980;-63.602;2022-12-15T00:15:17;25.10;46.40
59961;DHT22;55902;-37.980;-63.602;2022-12-15T00:18:06;24.90;46.00
59961;DHT22;55902;-37.980;-63.602;2022-12-15T00:20:55;24.70;46.40
59961;DHT22;55902;-37.980;-63.602;2022-12-15T00:23:41;24.60;46.50
59961;DHT22;55902;-37.980;-63.602;2022-12-15T00:26:25;24.40;46.60
59961;DHT22;55902;-37.980;-63.602;2022-12-15T00:29:13;24.30;46.50
59961;DHT22;55902;-37.980;-63.602;2022-12-15T00:31:58;24.20;46.80
59961;DHT22;55902;-37.980;-63.602;2022-12-15T00:34:43;24.00;46.50
59961;DHT22;55902;-37.980;-63.602;2022-12-15T00:37:28;23.80;46.60
59961;DHT22;55902;-37.980;-63.602;2022-12-15T00:40:13;23.60;46.50
59961;DHT22;55902;-37.980;-63.602;2022-12-15T00:42:40;23.50;46.60
59961;DHT22;55902;-37.980;-63.602;2022-12-15T00:45:07;23.30;46.80
59961;DHT22;55902;-37.980;-63.602;2022-12-15T00:47:35;23.30;46.50
59961;DHT22;55902;-37.980;-63.602;2022-12-15T00:50:02;23.20;46.80
59961;DHT22;55902;-37.980;-63.602;2022-12-15T00:52:47;23.20;47.10
59961;DHT22;55902;-37.980;-63.602;2022-12-15T00:55:32;23.10;47.30
59961;DHT22;55902;-37.980;-63.602;2022-12-15T00:58:17;23.10;47.30
59961;DHT22;55902;-37.980;-63.602;2022-12-15T01:01:07;23.00;47.40
59961;DHT22;55902;-37.980;-63.602;2022-12-15T01:03:55;23.00;47.80
59961;DHT22;55902;-37.980;-63.602;2022-12-15T01:06:40;22.90;47.60
59961;DHT22;55902;-37.980;-63.602;2022-12-15T01:09:26;22.80;47.60
59961;DHT22;55902;-37.980;-63.602;2022-12-15T01:12:10;22.80;48.50
59961;DHT22;55902;-37.980;-63.602;2022-12-15T01:14:55;22.80;48.50
59961;DHT22;55902;-37.980;-63.602;2022-12-15T01:17:40;22.70;49.50
59961;DHT22;55902;-37.980;-63.602;2022-12-15T01:20:25;22.70;49.20
59961;DHT22;55902;-37.980;-63.602;2022-12-15T01:22:56;22.60;48.90
59961;DHT22;55902;-37.980;-63.602;2022-12-15T01:25:25;22.60;48.50
59961;DHT22;55902;-37.980;-63.602;2022-12-15T01:27:56;22.60;49.50
59961;DHT22;55902;-37.980;-63.602;2022-12-15T01:30:27;22.60;50.00
59961;DHT22;55902;-37.980;-63.602;2022-12-15T01:32:56;22.50;50.30
59961;DHT22;55902;-37.980;-63.602;2022-12-15T01:35:23;22.50;50.80
59961;DHT22;55902;-37.980;-63.602;2022-12-15T01:37:53;22.40;52.10
59961;DHT22;55902;-37.980;-63.602;2022-12-15T01:40:23;22.40;53.20
59961;DHT22;55902;-37.980;-63.602;2022-12-15T01:43:25;22.30;54.40
59961;DHT22;55902;-37.980;-63.602;2022-12-15T01:46:27;22.20;55.00
59961;DHT22;55902;-37.980;-63.602;2022-12-15T01:49:04;22.10;55.60
59961;DHT22;55902;-37.980;-63.602;2022-12-15T01:51:40;22.10;55.40
59961;DHT22;55902;-37.980;-63.602;2022-12-15T01:54:29;22.00;55.60
59961;DHT22;55902;-37.980;-63.602;2022-12-15T01:57:06;21.90;56.60
59961;DHT22;55902;-37.980;-63.602;2022-12-15T01:59:43;21.80;55.90
59961;DHT22;55902;-37.980;-63.602;2022-12-15T02:02:14;21.70;57.60
59961;DHT22;55902;-37.980;-63.602;2022-12-15T02:04:44;21.60;58.40
59961;DHT22;55902;-37.980;-63.602;2022-12-15T02:07:16;21.60;59.60
59961;DHT22;55902;-37.980;-63.602;2022-12-15T02:09:48;21.50;61.00
59961;DHT22;55902;-37.980;-63.602;2022-12-15T02:31:21;21.00;63.70
59961;DHT22;55902;-37.980;-63.602;2022-12-15T02:34:36;20.90;61.70
59961;DHT22;55902;-37.980;-63.602;2022-12-15T02:39:42;20.90;65.40
59961;DHT22;55902;-37.980;-63.602;2022-12-15T02:42:12;20.90;64.10
59961;DHT22;55902;-37.980;-63.602;2022-12-15T02:44:48;20.80;65.50
59961;DHT22;55902;-37.980;-63.602;2022-12-15T02:53:02;20.80;67.70
59961;DHT22;55902;-37.980;-63.602;2022-12-15T02:58:18;20.60;68.00
59961;DHT22;55902;-37.980;-63.602;2022-12-15T03:00:54;20.70;69.30
59961;DHT22;55902;-37.980;-63.602;2022-12-15T03:03:28;20.60;67.60
59961;DHT22;55902;-37.980;-63.602;2022-12-15T03:06:00;20.60;67.80
59961;DHT22;55902;-37.980;-63.602;2022-12-15T03:08:28;20.50;70.20
59961;DHT22;55902;-37.980;-63.602;2022-12-15T03:10:58;20.40;69.90
59961;DHT22;55902;-37.980;-63.602;2022-12-15T03:13:25;20.40;68.70
59961;DHT22;55902;-37.980;-63.602;2022-12-15T03:15:56;20.40;69.60
59961;DHT22;55902;-37.980;-63.602;2022-12-15T03:18:27;20.40;71.60
59961;DHT22;55902;-37.980;-63.602;2022-12-15T03:20:54;20.40;70.50
59961;DHT22;55902;-37.980;-63.602;2022-12-15T03:23:21;20.30;70.50
59961;DHT22;55902;-37.980;-63.602;2022-12-15T03:25:48;20.20;70.40
59961;DHT22;55902;-37.980;-63.602;2022-12-15T03:28:18;20.20;70.30
59961;DHT22;55902;-37.980;-63.602;2022-12-15T03:30:46;20.20;71.60
59961;DHT22;55902;-37.980;-63.602;2022-12-15T03:33:17;20.10;70.50
59961;DHT22;55902;-37.980;-63.602;2022-12-15T03:35:44;20.10;69.10
59961;DHT22;55902;-37.980;-63.602;2022-12-15T03:38:11;20.10;70.50
59961;DHT22;55902;-37.980;-63.602;2022-12-15T03:40:38;20.00;71.60
59961;DHT22;55902;-37.980;-63.602;2022-12-15T03:43:05;20.00;70.80
59961;DHT22;55902;-37.980;-63.602;2022-12-15T03:45:32;19.90;72.90
59961;DHT22;55902;-37.980;-63.602;2022-12-15T03:48:02;19.90;70.40
59961;DHT22;55902;-37.980;-63.602;2022-12-15T03:50:30;19.90;69.50
59961;DHT22;55902;-37.980;-63.602;2022-12-15T03:53:01;19.90;70.10
59961;DHT22;55902;-37.980;-63.602;2022-12-15T03:55:28;19.90;68.40
59961;DHT22;55902;-37.980;-63.602;2022-12-15T03:57:56;19.90;68.90
59961;DHT22;55902;-37.980;-63.602;2022-12-15T04:00:23;19.90;68.30
59961;DHT22;55902;-37.980;-63.602;2022-12-15T04:02:53;19.90;68.20
59961;DHT22;55902;-37.980;-63.602;2022-12-15T04:05:28;19.90;69.20
59961;DHT22;55902;-37.980;-63.602;2022-12-15T04:07:57;19.80;67.90
59961;DHT22;55902;-37.980;-63.602;2022-12-15T04:10:25;19.80;68.40
59961;DHT22;55902;-37.980;-63.602;2022-12-15T04:12:57;19.80;68.50
59961;DHT22;55902;-37.980;-63.602;2022-12-15T04:15:27;19.80;67.30
59961;DHT22;55902;-37.980;-63.602;2022-12-15T04:17:57;19.80;65.70
59961;DHT22;55902;-37.980;-63.602;2022-12-15T04:20:24;19.70;65.80
59961;DHT22;55902;-37.980;-63.602;2022-12-15T04:22:54;19.70;64.20
59961;DHT22;55902;-37.980;-63.602;2022-12-15T04:25:23;19.70;63.80
59961;DHT22;55902;-37.980;-63.602;2022-12-15T04:28:09;19.70;65.00
59961;DHT22;55902;-37.980;-63.602;2022-12-15T04:30:58;19.80;65.20
59961;DHT22;55902;-37.980;-63.602;2022-12-15T04:33:50;19.70;64.10
59961;DHT22;55902;-37.980;-63.602;2022-12-15T04:36:37;19.70;63.40
59961;DHT22;55902;-37.980;-63.602;2022-12-15T04:39:22;19.70;63.00
59961;DHT22;55902;-37.980;-63.602;2022-12-15T04:42:08;19.70;63.20
59961;DHT22;55902;-37.980;-63.602;2022-12-15T04:55:01;19.60;64.30
59961;DHT22;55902;-37.980;-63.602;2022-12-15T04:57:47;19.60;61.80
59961;DHT22;55902;-37.980;-63.602;2022-12-15T05:00:32;19.60;61.80
59961;DHT22;55902;-37.980;-63.602;2022-12-15T05:03:16;19.50;61.00
59961;DHT22;55902;-37.980;-63.602;2022-12-15T05:06:01;19.60;61.00
59961;DHT22;55902;-37.980;-63.602;2022-12-15T05:08:46;19.50;60.70
59961;DHT22;55902;-37.980;-63.602;2022-12-15T05:11:31;19.50;60.40
59961;DHT22;55902;-37.980;-63.602;2022-12-15T05:14:20;19.50;60.80
59961;DHT22;55902;-37.980;-63.602;2022-12-15T05:17:05;19.50;59.60
59961;DHT22;55902;-37.980;-63.602;2022-12-15T05:19:53;19.60;60.60
59961;DHT22;55902;-37.980;-63.602;2022-12-15T05:22:38;19.60;60.50
59961;DHT22;55902;-37.980;-63.602;2022-12-15T05:25:23;19.50;62.60
59961;DHT22;55902;-37.980;-63.602;2022-12-15T05:28:08;19.60;63.60
59961;DHT22;55902;-37.980;-63.602;2022-12-15T05:30:53;19.60;65.80
59961;DHT22;55902;-37.980;-63.602;2022-12-15T05:33:38;19.50;63.10
59961;DHT22;55902;-37.980;-63.602;2022-12-15T05:36:08;19.60;62.20
59961;DHT22;55902;-37.980;-63.602;2022-12-15T05:38:35;19.60;64.60
59961;DHT22;55902;-37.980;-63.602;2022-12-15T05:41:02;19.50;64.90
59961;DHT22;55902;-37.980;-63.602;2022-12-15T05:43:31;19.40;65.00
59961;DHT22;55902;-37.980;-63.602;2022-12-15T05:46:08;19.40;66.70
59961;DHT22;55902;-37.980;-63.602;2022-12-15T05:48:35;19.40;63.20
59961;DHT22;55902;-37.980;-63.602;2022-12-15T05:51:06;19.40;66.30
59961;DHT22;55902;-37.980;-63.602;2022-12-15T05:53:35;19.40;64.90
59961;DHT22;55902;-37.980;-63.602;2022-12-15T05:56:10;19.30;65.30
59961;DHT22;55902;-37.980;-63.602;2022-12-15T05:58:41;19.30;64.10
59961;DHT22;55902;-37.980;-63.602;2022-12-15T06:01:14;19.20;63.70
59961;DHT22;55902;-37.980;-63.602;2022-12-15T06:03:42;19.20;63.10
59961;DHT22;55902;-37.980;-63.602;2022-12-15T06:06:12;19.10;69.60
59961;DHT22;55902;-37.980;-63.602;2022-12-15T06:08:43;19.00;67.30
59961;DHT22;55902;-37.980;-63.602;2022-12-15T06:11:14;18.90;66.20
59961;DHT22;55902;-37.980;-63.602;2022-12-15T06:13:42;18.90;68.50
59961;DHT22;55902;-37.980;-63.602;2022-12-15T06:16:18;18.80;72.10
59961;DHT22;55902;-37.980;-63.602;2022-12-15T06:18:51;18.70;70.50
59961;DHT22;55902;-37.980;-63.602;2022-12-15T06:21:21;18.70;68.00
59961;DHT22;55902;-37.980;-63.602;2022-12-15T06:23:50;18.60;68.20
59961;DHT22;55902;-37.980;-63.602;2022-12-15T06:28:58;18.50;71.40
59961;DHT22;55902;-37.980;-63.602;2022-12-15T06:31:30;18.50;70.50
59961;DHT22;55902;-37.980;-63.602;2022-12-15T06:33:58;18.40;73.40
59961;DHT22;55902;-37.980;-63.602;2022-12-15T06:36:31;18.30;72.00
59961;DHT22;55902;-37.980;-63.602;2022-12-15T06:39:03;18.20;74.30
59961;DHT22;55902;-37.980;-63.602;2022-12-15T06:41:30;18.20;74.10
59961;DHT22;55902;-37.980;-63.602;2022-12-15T06:43:58;18.10;72.00
59961;DHT22;55902;-37.980;-63.602;2022-12-15T06:46:27;18.00;79.80
59961;DHT22;55902;-37.980;-63.602;2022-12-15T06:48:54;17.90;75.20
59961;DHT22;55902;-37.980;-63.602;2022-12-15T06:51:22;17.90;72.30
59961;DHT22;55902;-37.980;-63.602;2022-12-15T06:53:49;17.90;71.30
59961;DHT22;55902;-37.980;-63.602;2022-12-15T06:56:27;18.00;71.30
59961;DHT22;55902;-37.980;-63.602;2022-12-15T06:58:55;17.80;79.10
59961;DHT22;55902;-37.980;-63.602;2022-12-15T07:01:24;17.80;81.40
59961;DHT22;55902;-37.980;-63.602;2022-12-15T07:03:55;17.70;77.90
59961;DHT22;55902;-37.980;-63.602;2022-12-15T07:06:22;17.70;77.00
59961;DHT22;55902;-37.980;-63.602;2022-12-15T07:08:51;17.70;78.90
59961;DHT22;55902;-37.980;-63.602;2022-12-15T07:11:20;17.60;79.10
59961;DHT22;55902;-37.980;-63.602;2022-12-15T07:13:53;17.60;82.70
59961;DHT22;55902;-37.980;-63.602;2022-12-15T07:16:24;17.50;83.60
59961;DHT22;55902;-37.980;-63.602;2022-12-15T07:18:51;17.50;80.20
59961;DHT22;55902;-37.980;-63.602;2022-12-15T07:21:21;17.40;82.80
59961;DHT22;55902;-37.980;-63.602;2022-12-15T07:23:52;17.40;83.50
59961;DHT22;55902;-37.980;-63.602;2022-12-15T07:26:22;17.30;83.10
59961;DHT22;55902;-37.980;-63.602;2022-12-15T07:28:53;17.30;80.00
59961;DHT22;55902;-37.980;-63.602;2022-12-15T07:31:25;17.30;77.60
59961;DHT22;55902;-37.980;-63.602;2022-12-15T07:33:52;17.30;81.00
59961;DHT22;55902;-37.980;-63.602;2022-12-15T07:36:20;17.30;80.90
59961;DHT22;55902;-37.980;-63.602;2022-12-15T07:38:50;17.20;81.90
59961;DHT22;55902;-37.980;-63.602;2022-12-15T07:41:22;17.20;86.40
59961;DHT22;55902;-37.980;-63.602;2022-12-15T07:43:49;17.10;87.50
59961;DHT22;55902;-37.980;-63.602;2022-12-15T07:46:16;17.10;88.90
59961;DHT22;55902;-37.980;-63.602;2022-12-15T07:48:44;17.00;88.60
59961;DHT22;55902;-37.980;-63.602;2022-12-15T07:51:11;17.00;84.80
59961;DHT22;55902;-37.980;-63.602;2022-12-15T07:53:38;17.00;88.40
59961;DHT22;55902;-37.980;-63.602;2022-12-15T07:56:06;16.90;90.90
59961;DHT22;55902;-37.980;-63.602;2022-12-15T07:58:36;16.80;91.00
59961;DHT22;55902;-37.980;-63.602;2022-12-15T08:01:05;16.80;88.30
59961;DHT22;55902;-37.980;-63.602;2022-12-15T08:03:36;16.90;83.30
59961;DHT22;55902;-37.980;-63.602;2022-12-15T08:06:05;16.90;81.30
59961;DHT22;55902;-37.980;-63.602;2022-12-15T08:08:33;16.90;85.90
59961;DHT22;55902;-37.980;-63.602;2022-12-15T08:11:13;16.80;86.40
59961;DHT22;55902;-37.980;-63.602;2022-12-15T08:13:42;16.90;83.80
59961;DHT22;55902;-37.980;-63.602;2022-12-15T08:16:10;16.80;90.30
59961;DHT22;55902;-37.980;-63.602;2022-12-15T08:18:37;16.70;91.00
59961;DHT22;55902;-37.980;-63.602;2022-12-15T08:21:06;16.80;89.10
59961;DHT22;55902;-37.980;-63.602;2022-12-15T08:23:37;16.70;92.40
59961;DHT22;55902;-37.980;-63.602;2022-12-15T08:26:08;16.70;93.10
59961;DHT22;55902;-37.980;-63.602;2022-12-15T08:38:43;16.30;93.10
59961;DHT22;55902;-37.980;-63.602;2022-12-15T08:41:15;16.20;92.20
59961;DHT22;55902;-37.980;-63.602;2022-12-15T08:43:42;16.10;94.10
59961;DHT22;55902;-37.980;-63.602;2022-12-15T08:46:11;16.00;93.80
59961;DHT22;55902;-37.980;-63.602;2022-12-15T08:48:38;16.00;93.10
59961;DHT22;55902;-37.980;-63.602;2022-12-15T08:51:05;15.90;92.40
59961;DHT22;55902;-37.980;-63.602;2022-12-15T08:53:33;15.90;92.40
59961;DHT22;55902;-37.980;-63.602;2022-12-15T08:56:05;15.80;92.50
59961;DHT22;55902;-37.980;-63.602;2022-12-15T08:58:35;15.70;93.50
59961;DHT22;55902;-37.980;-63.602;2022-12-15T09:01:04;15.70;92.70
59961;DHT22;55902;-37.980;-63.602;2022-12-15T09:03:33;15.70;93.10
59961;DHT22;55902;-37.980;-63.602;2022-12-15T09:06:10;15.60;93.00
59961;DHT22;55902;-37.980;-63.602;2022-12-15T09:08:41;15.60;92.20
59961;DHT22;55902;-37.980;-63.602;2022-12-15T09:11:08;15.60;94.50
59961;DHT22;55902;-37.980;-63.602;2022-12-15T09:13:35;15.70;96.30
59961;DHT22;55902;-37.980;-63.602;2022-12-15T09:16:05;15.70;97.30
59961;DHT22;55902;-37.980;-63.602;2022-12-15T09:18:33;15.80;97.00
59961;DHT22;55902;-37.980;-63.602;2022-12-15T09:21:06;15.90;95.70
59961;DHT22;55902;-37.980;-63.602;2022-12-15T09:23:34;16.10;94.20
59961;DHT22;55902;-37.980;-63.602;2022-12-15T09:26:03;16.30;94.90
59961;DHT22;55902;-37.980;-63.602;2022-12-15T09:28:37;16.40;96.00
59961;DHT22;55902;-37.980;-63.602;2022-12-15T09:31:06;16.50;95.90
59961;DHT22;55902;-37.980;-63.602;2022-12-15T09:33:38;16.50;95.70
59961;DHT22;55902;-37.980;-63.602;2022-12-15T09:36:06;16.60;95.80
59961;DHT22;55902;-37.980;-63.602;2022-12-15T09:38:35;16.60;95.00
59961;DHT22;55902;-37.980;-63.602;2022-12-15T09:41:31;16.50;95.00
59961;DHT22;55902;-37.980;-63.602;2022-12-15T09:44:03;16.60;95.20
59961;DHT22;55902;-37.980;-63.602;2022-12-15T09:54:58;16.50;97.40
59961;DHT22;55902;-37.980;-63.602;2022-12-15T09:57:46;16.60;96.70
59961;DHT22;55902;-37.980;-63.602;2022-12-15T10:00:19;16.70;96.30
59961;DHT22;55902;-37.980;-63.602;2022-12-15T10:08:08;17.00;92.50
59961;DHT22;55902;-37.980;-63.602;2022-12-15T10:14:03;17.20;92.90
59961;DHT22;55902;-37.980;-63.602;2022-12-15T10:20:20;17.60;91.90
59961;DHT22;55902;-37.980;-63.602;2022-12-15T10:22:56;17.70;92.40
59961;DHT22;55902;-37.980;-63.602;2022-12-15T10:25:57;17.90;92.40
59961;DHT22;55902;-37.980;-63.602;2022-12-15T10:28:51;18.00;92.30
59961;DHT22;55902;-37.980;-63.602;2022-12-15T10:31:53;18.20;92.00
59961;DHT22;55902;-37.980;-63.602;2022-12-15T10:34:28;18.70;92.70
59961;DHT22;55902;-37.980;-63.602;2022-12-15T10:37:28;19.20;91.90
59961;DHT22;55902;-37.980;-63.602;2022-12-15T10:47:33;21.10;88.10
59961;DHT22;55902;-37.980;-63.602;2022-12-15T10:54:17;22.10;84.70
59961;DHT22;55902;-37.980;-63.602;2022-12-15T11:01:17;22.20;80.00
59961;DHT22;55902;-37.980;-63.602;2022-12-15T11:03:59;22.30;79.20
59961;DHT22;55902;-37.980;-63.602;2022-12-15T11:10:32;22.70;76.70
59961;DHT22;55902;-37.980;-63.602;2022-12-15T11:13:35;23.80;75.30
59961;DHT22;55902;-37.980;-63.602;2022-12-15T11:16:17;24.30;72.60
59961;DHT22;55902;-37.980;-63.602;2022-12-15T11:19:01;24.40;72.70
59961;DHT22;55902;-37.980;-63.602;2022-12-15T11:21:52;24.40;70.20
59961;DHT22;55902;-37.980;-63.602;2022-12-15T11:28:44;24.60;67.20
59961;DHT22;55902;-37.980;-63.602;2022-12-15T11:34:41;25.00;63.50
59961;DHT22;55902;-37.980;-63.602;2022-12-15T11:40:20;25.70;65.00
59961;DHT22;55902;-37.980;-63.602;2022-12-15T11:43:21;26.20;62.80
59961;DHT22;55902;-37.980;-63.602;2022-12-15T11:46:17;26.40;59.70
59961;DHT22;55902;-37.980;-63.602;2022-12-15T11:57:50;25.70;57.20
59961;DHT22;55902;-37.980;-63.602;2022-12-15T12:00:22;25.70;57.70
59961;DHT22;55902;-37.980;-63.602;2022-12-15T12:08:52;26.10;57.10
59961;DHT22;55902;-37.980;-63.602;2022-12-15T12:19:57;27.90;53.10
59961;DHT22;55902;-37.980;-63.602;2022-12-15T12:22:40;28.70;53.80
59961;DHT22;55902;-37.980;-63.602;2022-12-15T12:25:17;29.60;53.80
59961;DHT22;55902;-37.980;-63.602;2022-12-15T12:27:57;30.30;52.40
59961;DHT22;55902;-37.980;-63.602;2022-12-15T12:30:32;30.90;53.20
59961;DHT22;55902;-37.980;-63.602;2022-12-15T12:35:50;31.60;51.90
59961;DHT22;55902;-37.980;-63.602;2022-12-15T12:38:29;31.70;51.10
59961;DHT22;55902;-37.980;-63.602;2022-12-15T12:43:35;32.60;47.90
59961;DHT22;55902;-37.980;-63.602;2022-12-15T12:52:31;32.30;49.30
59961;DHT22;55902;-37.980;-63.602;2022-12-15T12:55:36;32.60;51.00
59961;DHT22;55902;-37.980;-63.602;2022-12-15T13:01:35;33.70;49.50
59961;DHT22;55902;-37.980;-63.602;2022-12-15T13:04:11;34.10;46.50
59961;DHT22;55902;-37.980;-63.602;2022-12-15T13:09:48;34.90;42.80
59961;DHT22;55902;-37.980;-63.602;2022-12-15T13:16:20;35.60;45.40
59961;DHT22;55902;-37.980;-63.602;2022-12-15T13:18:57;35.90;37.30
59961;DHT22;55902;-37.980;-63.602;2022-12-15T13:24:32;36.10;40.60
59961;DHT22;55902;-37.980;-63.602;2022-12-15T13:27:22;36.10;34.50
59961;DHT22;55902;-37.980;-63.602;2022-12-15T13:32:44;36.20;41.60
59961;DHT22;55902;-37.980;-63.602;2022-12-15T13:35:36;36.50;42.40
59961;DHT22;55902;-37.980;-63.602;2022-12-15T13:38:53;36.80;37.80
59961;DHT22;55902;-37.980;-63.602;2022-12-15T13:44:40;36.80;36.30
59961;DHT22;55902;-37.980;-63.602;2022-12-15T13:47:32;36.70;36.90
59961;DHT22;55902;-37.980;-63.602;2022-12-15T13:50:13;36.70;38.70
59961;DHT22;55902;-37.980;-63.602;2022-12-15T13:52:53;36.80;39.60
59961;DHT22;55902;-37.980;-63.602;2022-12-15T13:55:25;37.00;39.90
59961;DHT22;55902;-37.980;-63.602;2022-12-15T13:58:15;37.00;35.70
59961;DHT22;55902;-37.980;-63.602;2022-12-15T14:04:33;37.30;32.40
59961;DHT22;55902;-37.980;-63.602;2022-12-15T14:07:36;37.20;35.50
59961;DHT22;55902;-37.980;-63.602;2022-12-15T14:19:16;36.40;33.50
59961;DHT22;55902;-37.980;-63.602;2022-12-15T14:22:48;36.60;33.80
59961;DHT22;55902;-37.980;-63.602;2022-12-15T14:25:21;36.80;31.60
59961;DHT22;55902;-37.980;-63.602;2022-12-15T14:27:53;37.10;32.10
59961;DHT22;55902;-37.980;-63.602;2022-12-15T14:30:24;37.10;33.50
59961;DHT22;55902;-37.980;-63.602;2022-12-15T14:33:16;36.80;30.80
59961;DHT22;55902;-37.980;-63.602;2022-12-15T14:35:50;36.70;31.60
59961;DHT22;55902;-37.980;-63.602;2022-12-15T14:41:47;36.60;32.70
59961;DHT22;55902;-37.980;-63.602;2022-12-15T14:46:57;36.70;31.30
59961;DHT22;55902;-37.980;-63.602;2022-12-15T14:49:28;36.80;32.20
59961;DHT22;55902;-37.980;-63.602;2022-12-15T14:52:02;37.00;29.50
59961;DHT22;55902;-37.980;-63.602;2022-12-15T14:54:36;37.20;30.20
59961;DHT22;55902;-37.980;-63.602;2022-12-15T14:59:48;36.70;31.50
59961;DHT22;55902;-37.980;-63.602;2022-12-15T15:02:25;36.80;32.90
59961;DHT22;55902;-37.980;-63.602;2022-12-15T15:04:57;37.00;31.80
59961;DHT22;55902;-37.980;-63.602;2022-12-15T15:07:34;37.20;30.70
59961;DHT22;55902;-37.980;-63.602;2022-12-15T15:10:21;37.40;31.10
59961;DHT22;55902;-37.980;-63.602;2022-12-15T15:12:49;37.10;26.30
59961;DHT22;55902;-37.980;-63.602;2022-12-15T15:15:18;36.60;27.70
59961;DHT22;55902;-37.980;-63.602;2022-12-15T15:17:56;36.50;28.50
59961;DHT22;55902;-37.980;-63.602;2022-12-15T15:20:32;35.80;28.10
59961;DHT22;55902;-37.980;-63.602;2022-12-15T15:26:07;35.50;28.90
59961;DHT22;55902;-37.980;-63.602;2022-12-15T15:28:40;35.50;29.00
59961;DHT22;55902;-37.980;-63.602;2022-12-15T15:31:34;35.80;30.30
59961;DHT22;55902;-37.980;-63.602;2022-12-15T15:34:00;36.20;30.20
59961;DHT22;55902;-37.980;-63.602;2022-12-15T15:36:36;36.40;29.20
59961;DHT22;55902;-37.980;-63.602;2022-12-15T15:39:17;36.30;28.60
59961;DHT22;55902;-37.980;-63.602;2022-12-15T15:41:56;36.10;28.60
59961;DHT22;55902;-37.980;-63.602;2022-12-15T15:44:26;36.00;28.80
59961;DHT22;55902;-37.980;-63.602;2022-12-15T15:47:27;36.20;29.40
59961;DHT22;55902;-37.980;-63.602;2022-12-15T15:50:38;36.30;28.00
59961;DHT22;55902;-37.980;-63.602;2022-12-15T15:53:15;36.50;29.30
59961;DHT22;55902;-37.980;-63.602;2022-12-15T15:55:51;36.90;29.20
59961;DHT22;55902;-37.980;-63.602;2022-12-15T15:58:21;37.00;29.30
59961;DHT22;55902;-37.980;-63.602;2022-12-15T16:01:16;36.70;27.70
59961;DHT22;55902;-37.980;-63.602;2022-12-15T16:03:44;36.50;29.70
59961;DHT22;55902;-37.980;-63.602;2022-12-15T16:06:22;36.50;28.20
59961;DHT22;55902;-37.980;-63.602;2022-12-15T16:08:58;35.70;29.10
59961;DHT22;55902;-37.980;-63.602;2022-12-15T16:11:29;35.20;29.40
59961;DHT22;55902;-37.980;-63.602;2022-12-15T16:14:01;35.30;30.40
59961;DHT22;55902;-37.980;-63.602;2022-12-15T16:16:34;35.90;30.20
59961;DHT22;55902;-37.980;-63.602;2022-12-15T16:19:02;36.80;30.00
59961;DHT22;55902;-37.980;-63.602;2022-12-15T16:21:30;37.40;28.30
59961;DHT22;55902;-37.980;-63.602;2022-12-15T16:23:58;37.70;27.80
59961;DHT22;55902;-37.980;-63.602;2022-12-15T16:26:32;38.10;27.80
59961;DHT22;55902;-37.980;-63.602;2022-12-15T16:29:24;38.40;27.70
59961;DHT22;55902;-37.980;-63.602;2022-12-15T16:31:50;38.60;27.80
59961;DHT22;55902;-37.980;-63.602;2022-12-15T16:34:17;38.80;27.70
59961;DHT22;55902;-37.980;-63.602;2022-12-15T16:36:47;39.10;28.10
59961;DHT22;55902;-37.980;-63.602;2022-12-15T16:39:35;39.70;27.90
59961;DHT22;55902;-37.980;-63.602;2022-12-15T16:42:21;39.90;26.80
59961;DHT22;55902;-37.980;-63.602;2022-12-15T16:44:48;40.10;26.80
59961;DHT22;55902;-37.980;-63.602;2022-12-15T16:47:15;40.40;26.30
59961;DHT22;55902;-37.980;-63.602;2022-12-15T16:49:42;40.70;27.00
59961;DHT22;55902;-37.980;-63.602;2022-12-15T16:52:17;40.90;27.20
59961;DHT22;55902;-37.980;-63.602;2022-12-15T16:54:46;41.20;26.40
59961;DHT22;55902;-37.980;-63.602;2022-12-15T16:57:13;41.30;25.70
59961;DHT22;55902;-37.980;-63.602;2022-12-15T16:59:40;41.20;26.40
59961;DHT22;55902;-37.980;-63.602;2022-12-15T17:02:27;40.80;24.90
59961;DHT22;55902;-37.980;-63.602;2022-12-15T17:04:54;40.20;25.50
59961;DHT22;55902;-37.980;-63.602;2022-12-15T17:07:22;39.50;26.70
59961;DHT22;55902;-37.980;-63.602;2022-12-15T17:10:30;38.90;26.80
59961;DHT22;55902;-37.980;-63.602;2022-12-15T17:16:01;37.90;27.30
59961;DHT22;55902;-37.980;-63.602;2022-12-15T17:18:28;38.40;27.00
59961;DHT22;55902;-37.980;-63.602;2022-12-15T17:24:04;39.20;27.20
59961;DHT22;55902;-37.980;-63.602;2022-12-15T17:26:37;39.00;24.90
59961;DHT22;55902;-37.980;-63.602;2022-12-15T17:29:13;38.20;26.20
59961;DHT22;55902;-37.980;-63.602;2022-12-15T17:31:42;37.40;27.00
59961;DHT22;55902;-37.980;-63.602;2022-12-15T17:36:54;35.90;26.20
59961;DHT22;55902;-37.980;-63.602;2022-12-15T17:39:23;35.30;26.80
59961;DHT22;55902;-37.980;-63.602;2022-12-15T17:41:51;34.80;27.90
